createdAt,value
2018-10-19T00:01:29.550Z,30.37
2018-10-19T00:03:33.489Z,28.98
2018-10-19T00:05:37.408Z,33.63
2018-10-19T00:07:41.321Z,30.82
2018-10-19T00:09:45.314Z,28.50
2018-10-19T00:11:49.146Z,27.98
2018-10-19T00:13:53.134Z,30.00
2018-10-19T00:15:57.040Z,28.83
2018-10-19T00:18:00.944Z,27.65
2018-10-19T00:20:05.495Z,30.68
2018-10-19T00:22:09.359Z,29.95
2018-10-19T00:24:13.240Z,34.10
2018-10-19T00:26:17.129Z,33.15
2018-10-19T00:28:21.011Z,32.20
2018-10-19T00:30:24.911Z,32.35
2018-10-19T00:32:29.679Z,31.65
2018-10-19T00:34:34.157Z,32.38
2018-10-19T00:36:38.096Z,31.75
2018-10-19T00:38:42.103Z,28.25
2018-10-19T00:40:45.981Z,30.62
2018-10-19T00:42:50.678Z,30.43
2018-10-19T00:44:55.059Z,28.77
2018-10-19T00:46:59.033Z,30.45
2018-10-19T00:49:03.155Z,30.43
2018-10-19T00:51:07.109Z,30.95
2018-10-19T00:53:17.829Z,31.73
2018-10-19T00:55:21.698Z,32.03
2018-10-19T00:57:25.574Z,31.25
2018-10-19T00:59:29.477Z,32.10
2018-10-19T01:03:58.032Z,32.73
2018-10-19T01:06:02.202Z,33.35
2018-10-19T01:08:06.702Z,30.50
2018-10-19T01:10:10.558Z,30.62
2018-10-19T01:12:14.318Z,32.78
2018-10-19T01:14:18.152Z,31.17
2018-10-19T01:16:21.987Z,30.45
2018-10-19T01:18:25.744Z,30.57
2018-10-19T01:20:29.936Z,29.40
2018-10-19T01:22:33.712Z,28.95
2018-10-19T01:24:37.537Z,26.75
2018-10-19T01:26:41.727Z,28.02
2018-10-19T01:28:45.506Z,28.45
2018-10-19T01:30:49.320Z,30.50
2018-10-19T01:32:53.160Z,30.30
2018-10-19T01:34:57.551Z,30.52
2018-10-19T01:37:04.204Z,28.35
2018-10-19T01:39:08.678Z,28.73
2018-10-19T01:41:12.680Z,31.00
2018-10-19T01:43:16.581Z,30.15
2018-10-19T01:45:20.404Z,32.85
2018-10-19T01:47:24.208Z,30.62
2018-10-19T01:49:28.008Z,30.95
2018-10-19T01:51:31.848Z,30.70
2018-10-19T01:53:35.626Z,28.65
2018-10-19T01:55:39.453Z,30.85
2018-10-19T01:57:43.223Z,31.82
2018-10-19T01:59:47.027Z,29.55
2018-10-19T02:01:50.791Z,30.45
2018-10-19T02:03:54.554Z,27.67
2018-10-19T02:05:58.348Z,28.95
2018-10-19T02:08:02.578Z,29.40
2018-10-19T02:10:07.591Z,27.67
2018-10-19T02:12:11.357Z,27.62
2018-10-19T02:14:15.110Z,27.93
2018-10-19T02:16:18.892Z,27.67
2018-10-19T02:18:22.650Z,29.87
2018-10-19T02:20:26.454Z,28.15
2018-10-19T02:22:30.217Z,30.62
2018-10-19T02:24:34.004Z,29.60
2018-10-19T02:26:38.174Z,28.77
2018-10-19T02:28:41.948Z,30.25
2018-10-19T02:30:45.722Z,30.55
2018-10-19T02:32:49.514Z,29.67
2018-10-19T02:34:53.308Z,29.27
2018-10-19T02:36:57.180Z,29.27
2018-10-19T02:39:01.002Z,29.20
2018-10-19T02:41:05.410Z,30.15
2018-10-19T02:43:09.381Z,25.92
2018-10-19T02:45:13.228Z,26.75
2018-10-19T02:47:17.225Z,26.97
2018-10-19T02:49:21.133Z,25.82
2018-10-19T02:51:25.013Z,27.22
2018-10-19T02:53:28.834Z,28.02
2018-10-19T02:55:32.647Z,27.77
2018-10-19T02:57:36.380Z,27.10
2018-10-19T02:59:40.160Z,29.87
2018-10-19T03:01:43.936Z,26.07
2018-10-19T03:03:47.820Z,27.25
2018-10-19T03:05:51.642Z,26.90
2018-10-19T03:07:55.410Z,25.43
2018-10-19T03:09:59.176Z,31.40
2018-10-19T03:21:56.042Z,31.57
2018-10-19T03:23:59.835Z,24.77
2018-10-19T03:26:03.663Z,28.32
2018-10-19T03:28:07.446Z,28.83
2018-10-19T03:30:11.231Z,27.27
2018-10-19T03:32:15.146Z,29.77
2018-10-19T03:34:19.076Z,28.77
2018-10-19T03:36:22.876Z,28.02
2018-10-19T03:38:26.658Z,27.87
2018-10-19T03:40:30.461Z,26.95
2018-10-19T03:42:34.287Z,29.57
2018-10-19T03:44:38.063Z,30.45
2018-10-19T03:46:41.854Z,29.75
2018-10-19T03:48:45.662Z,27.60
2018-10-19T03:50:49.814Z,27.62
2018-10-19T03:52:53.782Z,27.75
2018-10-19T03:54:57.540Z,27.20
2018-10-19T03:57:01.411Z,26.85
2018-10-19T03:59:05.762Z,27.20
2018-10-19T04:01:09.667Z,26.30
2018-10-19T04:03:13.623Z,28.85
2018-10-19T04:05:17.582Z,29.25
2018-10-19T04:07:21.557Z,29.12
2018-10-19T04:09:25.319Z,30.57
2018-10-19T04:11:29.127Z,29.27
2018-10-19T04:13:33.015Z,27.05
2018-10-19T04:15:36.788Z,26.27
2018-10-19T04:17:40.580Z,26.30
2018-10-19T04:19:44.329Z,25.48
2018-10-19T04:21:48.101Z,26.20
2018-10-19T04:23:52.071Z,24.07
2018-10-19T04:25:55.868Z,23.52
2018-10-19T04:27:59.693Z,24.23
2018-10-19T04:30:03.500Z,26.62
2018-10-19T04:32:07.238Z,27.10
2018-10-19T04:34:11.012Z,26.75
2018-10-19T04:36:15.024Z,24.57
2018-10-19T04:38:19.314Z,24.27
2018-10-19T04:40:23.765Z,25.15
2018-10-19T04:42:30.917Z,24.40
2018-10-19T04:44:36.207Z,27.35
2018-10-19T04:46:40.087Z,25.55
2018-10-19T04:48:43.888Z,25.43
2018-10-19T04:50:47.882Z,25.08
2018-10-19T04:52:51.770Z,24.40
2018-10-19T04:54:55.630Z,23.83
2018-10-19T04:56:59.491Z,24.20
2018-10-19T04:59:03.500Z,25.25
2018-10-19T05:01:08.017Z,24.23
2018-10-19T05:03:12.029Z,25.50
2018-10-19T05:05:16.133Z,24.25
2018-10-19T05:07:20.053Z,24.98
2018-10-19T05:09:23.913Z,24.32
2018-10-19T05:11:27.735Z,23.12
2018-10-19T05:13:31.575Z,23.65
2018-10-19T05:15:35.504Z,24.67
2018-10-19T05:17:39.429Z,24.02
2018-10-19T05:19:43.257Z,23.95
2018-10-19T05:21:47.032Z,25.48
2018-10-19T05:23:50.868Z,25.97
2018-10-19T05:25:54.689Z,25.17
2018-10-19T05:27:58.673Z,23.27
2018-10-19T05:30:02.623Z,24.65
2018-10-19T05:32:06.869Z,25.10
2018-10-19T05:34:10.796Z,25.65
2018-10-19T05:36:14.615Z,25.95
2018-10-19T05:38:18.578Z,23.85
2018-10-19T05:40:22.449Z,25.43
2018-10-19T05:42:26.325Z,26.35
2018-10-19T05:44:30.261Z,26.30
2018-10-19T05:46:34.184Z,25.27
2018-10-19T05:48:38.410Z,25.15
2018-10-19T05:50:42.315Z,25.45
2018-10-19T05:52:46.122Z,23.65
2018-10-19T05:54:50.784Z,23.87
2018-10-19T05:56:54.644Z,24.85
2018-10-19T05:59:00.823Z,25.25
2018-10-19T06:01:05.254Z,24.55
2018-10-19T06:03:09.088Z,24.57
2018-10-19T06:05:13.037Z,23.77
2018-10-19T06:07:17.099Z,25.30
2018-10-19T06:09:21.000Z,23.45
2018-10-19T06:11:24.950Z,25.30
2018-10-19T06:13:28.867Z,24.05
2018-10-19T06:15:32.997Z,26.20
2018-10-19T06:17:36.901Z,24.92
2018-10-19T06:19:40.768Z,23.73
2018-10-19T06:21:44.682Z,25.88
2018-10-19T06:23:48.581Z,24.82
2018-10-19T06:25:52.475Z,23.00
2018-10-19T06:27:56.589Z,22.80
2018-10-19T06:30:00.472Z,23.27
2018-10-19T06:32:04.742Z,22.87
2018-10-19T06:34:08.947Z,21.17
2018-10-19T06:36:12.789Z,21.52
2018-10-19T06:38:16.635Z,21.12
2018-10-19T06:40:20.647Z,22.87
2018-10-19T06:42:24.475Z,21.12
2018-10-19T06:44:28.418Z,21.23
2018-10-19T06:46:32.327Z,21.33
2018-10-19T06:48:36.425Z,19.15
2018-10-19T06:50:40.420Z,18.77
2018-10-19T06:52:44.081Z,18.63
2018-10-19T06:54:47.716Z,19.00
2018-10-19T06:56:51.285Z,17.60
2018-10-19T06:58:55.002Z,18.80
2018-10-19T07:00:58.737Z,18.67
2018-10-19T07:03:02.266Z,17.70
2018-10-19T07:05:06.509Z,17.23
2018-10-19T07:07:10.448Z,16.60
2018-10-19T07:09:13.978Z,16.93
2018-10-19T07:11:17.559Z,18.13
2018-10-19T07:13:21.056Z,18.30
2018-10-19T07:15:24.635Z,16.97
2018-10-19T07:17:28.257Z,18.77
2018-10-19T07:19:31.756Z,18.73
2018-10-19T07:21:35.398Z,18.23
2018-10-19T07:23:39.116Z,18.50
2018-10-19T07:25:42.645Z,17.07
2018-10-19T07:27:46.668Z,18.30
2018-10-19T07:29:50.157Z,19.37
2018-10-19T07:31:53.725Z,19.13
2018-10-19T07:33:57.388Z,18.73
2018-10-19T07:36:00.910Z,18.30
2018-10-19T07:38:04.591Z,20.07
2018-10-19T07:40:10.356Z,18.40
2018-10-19T07:42:14.028Z,18.63
2018-10-19T07:44:17.651Z,19.40
2018-10-19T07:46:21.151Z,19.80
2018-10-19T07:48:24.696Z,18.70
2018-10-19T07:50:28.389Z,20.07
2018-10-19T07:52:31.952Z,20.10
2018-10-19T07:54:35.545Z,22.03
2018-10-19T07:56:39.171Z,21.23
2018-10-19T07:58:43.060Z,21.57
2018-10-19T08:00:46.656Z,21.17
2018-10-19T08:02:50.321Z,22.37
2018-10-19T08:04:53.943Z,21.50
2018-10-19T08:06:58.666Z,21.93
2018-10-19T08:09:02.235Z,22.57
2018-10-19T08:11:06.537Z,24.03
2018-10-19T08:13:10.448Z,23.50
2018-10-19T08:15:14.316Z,23.97
2018-10-19T08:17:17.998Z,24.30
2018-10-19T08:19:21.630Z,24.83
2018-10-19T08:21:25.580Z,25.27
2018-10-19T08:23:29.337Z,25.53
2018-10-19T08:25:32.899Z,25.03
2018-10-19T08:27:36.498Z,25.93
2018-10-19T08:29:40.139Z,26.47
2018-10-19T08:31:44.397Z,25.70
2018-10-19T08:33:48.281Z,28.17
2018-10-19T08:35:52.045Z,26.90
2018-10-19T08:37:55.724Z,28.43
2018-10-19T08:40:00.042Z,27.50
2018-10-19T08:42:03.639Z,26.90
2018-10-19T08:44:07.298Z,27.07
2018-10-19T08:46:16.238Z,28.40
2018-10-19T08:48:19.960Z,28.77
2018-10-19T08:50:23.693Z,29.33
2018-10-19T08:52:27.630Z,26.63
2018-10-19T08:54:31.326Z,27.43
2018-10-19T08:56:35.038Z,26.90
2018-10-19T08:58:38.865Z,27.30
2018-10-19T09:00:42.446Z,27.70
2018-10-19T09:02:46.044Z,27.30
2018-10-19T09:04:49.641Z,29.53
2018-10-19T09:06:53.580Z,28.60
2018-10-19T09:08:57.159Z,28.67
2018-10-19T09:11:01.449Z,26.40
2018-10-19T09:13:05.850Z,27.27
2018-10-19T09:15:09.504Z,29.20
2018-10-19T09:17:14.360Z,27.03
2018-10-19T09:19:18.784Z,26.30
2018-10-19T09:21:22.366Z,27.07
2018-10-19T09:23:25.860Z,29.20
2018-10-19T09:25:29.487Z,27.73
2018-10-19T09:32:30.345Z,25.57
2018-10-19T09:34:34.778Z,25.63
2018-10-19T09:36:38.727Z,27.53
2018-10-19T09:38:42.426Z,26.50
2018-10-19T09:40:46.250Z,25.50
2018-10-19T09:42:49.963Z,24.50
2018-10-19T09:44:53.633Z,25.50
2018-10-19T09:46:57.459Z,25.73
2018-10-19T09:49:01.333Z,25.07
2018-10-19T09:51:05.719Z,26.23
2018-10-19T09:53:09.561Z,25.30
2018-10-19T09:55:13.353Z,24.77
2018-10-19T09:57:17.054Z,24.53
2018-10-19T09:59:20.571Z,25.30
2018-10-19T10:01:28.668Z,25.10
2018-10-19T10:03:32.247Z,25.67
2018-10-19T10:05:35.780Z,26.30
2018-10-19T10:07:39.254Z,26.63
2018-10-19T10:09:42.762Z,24.90
2018-10-19T10:11:46.427Z,25.53
2018-10-19T10:13:50.085Z,26.00
2018-10-19T10:15:53.758Z,25.80
2018-10-19T10:17:57.372Z,25.80
2018-10-19T10:20:00.890Z,24.30
2018-10-19T10:22:04.804Z,25.23
2018-10-19T10:24:08.861Z,24.80
2018-10-19T10:26:12.948Z,25.23
2018-10-19T10:28:16.552Z,23.67
2018-10-19T10:30:21.138Z,23.50
2018-10-19T10:32:24.714Z,24.53
2018-10-19T10:34:28.504Z,22.63
2018-10-19T10:36:32.169Z,23.87
2018-10-19T10:38:36.013Z,23.53
2018-10-19T10:40:39.564Z,23.10
2018-10-19T10:42:43.132Z,26.63
2018-10-19T10:44:46.624Z,23.07
2018-10-19T10:46:50.215Z,22.80
2018-10-19T10:48:53.859Z,24.30
2018-10-19T10:50:57.841Z,23.10
2018-10-19T10:53:01.360Z,25.63
2018-10-19T10:55:05.802Z,23.57
2018-10-19T10:57:09.569Z,23.50
2018-10-19T10:59:13.120Z,25.93
2018-10-19T11:01:16.691Z,24.97
2018-10-19T11:03:20.295Z,25.20
2018-10-19T11:05:23.960Z,24.07
2018-10-19T11:07:27.678Z,24.03
2018-10-19T11:09:31.377Z,25.57
2018-10-19T11:11:34.893Z,25.93
2018-10-19T11:13:39.249Z,25.70
2018-10-19T11:15:42.848Z,24.57
2018-10-19T11:17:46.470Z,25.40
2018-10-19T11:19:50.041Z,24.03
2018-10-19T11:21:53.639Z,23.27
2018-10-19T11:23:57.323Z,22.37
2018-10-19T11:26:01.171Z,23.13
2018-10-19T11:28:11.593Z,23.77
2018-10-19T11:30:15.668Z,25.90
2018-10-19T11:32:19.231Z,25.77
2018-10-19T11:34:22.728Z,26.87
2018-10-19T11:36:26.339Z,25.87
2018-10-19T11:38:29.867Z,26.30
2018-10-19T11:40:34.790Z,27.83
2018-10-19T11:42:38.279Z,25.60
2018-10-19T11:44:41.737Z,26.27
2018-10-19T11:46:45.271Z,27.27
2018-10-19T11:48:48.861Z,26.30
2018-10-19T11:50:52.577Z,24.70
2018-10-19T11:52:56.107Z,26.60
2018-10-19T11:54:59.950Z,25.73
2018-10-19T11:57:03.698Z,25.13
2018-10-19T11:59:07.407Z,25.17
2018-10-19T12:01:10.997Z,25.57
2018-10-19T12:03:14.967Z,24.53
2018-10-19T12:05:18.604Z,25.37
2018-10-19T12:07:22.104Z,25.57
2018-10-19T12:09:25.595Z,25.30
2018-10-19T12:11:29.153Z,24.87
2018-10-19T12:13:32.696Z,25.13
2018-10-19T12:15:36.185Z,26.50
2018-10-19T12:17:40.226Z,26.00
2018-10-19T12:19:43.716Z,25.30
2018-10-19T12:21:47.219Z,26.70
2018-10-19T12:23:50.781Z,26.43
2018-10-19T12:25:54.300Z,27.17
2018-10-19T12:27:58.086Z,27.10
2018-10-19T12:30:01.608Z,27.33
2018-10-19T12:32:05.949Z,25.10
2018-10-19T12:34:09.568Z,24.97
2018-10-19T12:36:13.162Z,25.10
2018-10-19T12:38:16.812Z,26.17
2018-10-19T12:40:20.414Z,25.53
2018-10-19T12:42:24.368Z,23.67
2018-10-19T12:44:27.818Z,25.23
2018-10-19T12:46:45.568Z,25.37
2018-10-19T12:48:49.601Z,25.63
2018-10-19T12:50:53.114Z,27.00
2018-10-19T12:52:56.823Z,25.77
2018-10-19T12:55:00.402Z,24.90
2018-10-19T12:57:04.134Z,27.10
2018-10-19T12:59:08.252Z,28.50
2018-10-19T13:01:11.833Z,26.07
2018-10-19T13:03:15.815Z,26.27
2018-10-19T13:05:19.188Z,26.47
2018-10-19T13:07:22.922Z,24.87
2018-10-19T13:09:26.545Z,25.93
2018-10-19T13:11:30.096Z,25.77
2018-10-19T13:13:33.652Z,26.33
2018-10-19T13:15:37.220Z,26.73
2018-10-19T13:17:40.715Z,26.57
2018-10-19T13:19:44.256Z,26.43
2018-10-19T13:21:47.752Z,26.37
2018-10-19T13:23:51.276Z,27.60
2018-10-19T13:25:54.831Z,26.80
2018-10-19T13:27:58.727Z,26.20
2018-10-19T13:30:02.380Z,25.37
2018-10-19T13:32:06.449Z,27.23
2018-10-19T13:34:09.965Z,26.10
2018-10-19T13:36:13.582Z,25.73
2018-10-19T13:38:17.213Z,27.83
2018-10-19T13:40:20.770Z,27.43
2018-10-19T13:42:24.293Z,26.40
2018-10-19T13:44:27.840Z,26.37
2018-10-19T13:46:31.357Z,27.07
2018-10-19T13:48:34.951Z,25.80
2018-10-19T13:50:38.510Z,26.70
2018-10-19T13:52:42.188Z,28.50
2018-10-19T13:54:45.675Z,26.70
2018-10-19T13:56:49.171Z,26.63
2018-10-19T13:58:52.678Z,24.53
2018-10-19T14:00:56.172Z,24.90
2018-10-19T14:02:59.747Z,27.70
2018-10-19T14:05:03.531Z,27.47
2018-10-19T14:07:07.159Z,26.93
2018-10-19T14:09:11.264Z,26.63
2018-10-19T14:11:14.958Z,25.07
2018-10-19T14:13:18.600Z,26.53
2018-10-19T14:15:22.142Z,26.67
2018-10-19T14:17:25.606Z,25.47
2018-10-19T14:19:29.209Z,26.37
2018-10-19T14:21:33.120Z,27.10
2018-10-19T14:23:36.742Z,27.07
2018-10-19T14:25:40.353Z,25.30
2018-10-19T14:27:44.892Z,26.70
2018-10-19T14:29:48.421Z,26.83
2018-10-19T14:31:51.932Z,26.30
2018-10-19T14:33:55.423Z,26.43
2018-10-19T14:35:58.983Z,23.90
2018-10-19T14:38:02.559Z,26.27
2018-10-19T14:40:07.444Z,25.60
2018-10-19T14:42:11.028Z,26.93
2018-10-19T14:44:14.719Z,27.80
2018-10-19T14:46:18.568Z,22.87
2018-10-19T14:48:22.044Z,26.00
2018-10-19T14:50:25.609Z,26.40
2018-10-19T14:52:29.137Z,29.07
2018-10-19T14:54:32.765Z,26.80
2018-10-19T14:56:36.436Z,26.53
2018-10-19T14:58:39.941Z,26.03
2018-10-19T15:00:43.488Z,28.07
2018-10-19T15:02:47.064Z,25.87
2018-10-19T15:04:50.605Z,23.57
2018-10-19T15:06:54.146Z,26.53
2018-10-19T15:08:57.660Z,26.87
2018-10-19T15:11:01.573Z,26.80
2018-10-19T15:13:05.105Z,29.07
2018-10-19T15:15:10.890Z,25.07
2018-10-19T15:17:14.550Z,25.77
2018-10-19T15:19:18.102Z,27.70
2018-10-19T15:21:21.613Z,26.03
2018-10-19T15:23:25.123Z,28.93
2018-10-19T15:25:28.629Z,28.03
2018-10-19T15:27:32.217Z,27.60
2018-10-19T15:29:35.803Z,27.40
2018-10-19T15:31:39.459Z,29.07
2018-10-19T15:33:42.986Z,28.50
2018-10-19T15:35:46.487Z,27.13
2018-10-19T15:37:49.980Z,26.33
2018-10-19T15:39:53.500Z,28.70
2018-10-19T15:41:57.067Z,27.47
2018-10-19T15:44:00.745Z,28.33
2018-10-19T15:48:32.697Z,28.13
2018-10-19T15:50:36.208Z,27.53
2018-10-19T15:52:39.712Z,28.83
2018-10-19T15:54:43.231Z,28.27
2018-10-19T15:56:46.809Z,28.87
2018-10-19T15:58:50.463Z,31.27
2018-10-19T16:00:54.001Z,26.90
2018-10-19T16:02:57.489Z,28.13
2018-10-19T16:05:00.988Z,29.70
2018-10-19T16:07:04.512Z,29.77
2018-10-19T16:09:11.148Z,28.77
2018-10-19T16:11:14.775Z,30.33
2018-10-19T16:13:18.291Z,29.00
2018-10-19T16:15:21.796Z,29.23
2018-10-19T16:17:25.348Z,31.87
2018-10-19T16:19:28.864Z,29.27
2018-10-19T16:21:32.639Z,30.90
2018-10-19T16:23:36.133Z,31.47
2018-10-19T16:25:39.700Z,31.13
2018-10-19T16:27:43.187Z,31.23
2018-10-19T16:29:46.706Z,31.17
2018-10-19T16:31:50.216Z,30.03
2018-10-19T16:33:53.707Z,32.33
2018-10-19T16:35:57.239Z,29.83
2018-10-19T16:38:00.951Z,29.27
2018-10-19T16:40:04.741Z,28.90
2018-10-19T16:42:08.299Z,28.03
2018-10-19T16:44:11.835Z,28.20
2018-10-19T16:46:15.444Z,28.30
2018-10-19T16:48:19.477Z,29.43
2018-10-19T16:50:22.992Z,29.40
2018-10-19T16:52:26.628Z,25.43
2018-10-19T16:54:30.185Z,30.13
2018-10-19T16:56:33.685Z,27.47
2018-10-19T16:58:37.140Z,28.33
2018-10-19T17:00:40.636Z,28.23
2018-10-19T17:02:44.173Z,29.87
2018-10-19T17:04:47.722Z,27.57
2018-10-19T17:06:51.431Z,26.63
2018-10-19T17:08:54.915Z,25.70
2018-10-19T17:10:58.439Z,26.33
2018-10-19T17:13:01.947Z,25.40
2018-10-19T17:15:06.079Z,25.03
2018-10-19T17:17:09.757Z,25.17
2018-10-19T17:19:13.270Z,24.67
2018-10-19T17:21:16.976Z,24.97
2018-10-19T17:23:20.507Z,25.40
2018-10-19T17:25:24.183Z,27.80
2018-10-19T17:27:27.867Z,27.40
2018-10-19T17:29:31.342Z,28.70
2018-10-19T17:31:34.911Z,27.33
2018-10-19T17:33:38.611Z,27.13
2018-10-19T17:35:42.188Z,24.83
2018-10-19T17:37:45.717Z,26.10
2018-10-19T17:39:49.216Z,25.67
2018-10-19T17:41:52.768Z,26.30
2018-10-19T17:43:56.433Z,25.97
2018-10-19T17:45:59.896Z,25.67
2018-10-19T17:48:03.815Z,27.87
2018-10-19T17:50:07.913Z,27.00
2018-10-19T17:52:11.463Z,27.30
2018-10-19T17:54:15.286Z,27.70
2018-10-19T17:56:18.995Z,27.97
2018-10-19T17:58:22.561Z,28.10
2018-10-19T18:00:26.081Z,25.80
2018-10-19T18:02:29.600Z,26.80
2018-10-19T18:04:33.154Z,27.93
2018-10-19T18:06:36.825Z,28.17
2018-10-19T18:08:40.403Z,28.20
2018-10-19T18:10:43.935Z,28.93
2018-10-19T18:12:47.474Z,29.17
2018-10-19T18:14:50.957Z,29.00
2018-10-19T18:16:54.485Z,31.90
2018-10-19T18:18:58.064Z,32.60
2018-10-19T18:21:01.794Z,28.80
2018-10-19T18:23:05.725Z,30.00
2018-10-19T18:25:09.551Z,28.80
2018-10-19T18:27:13.199Z,29.10
2018-10-19T18:29:17.029Z,28.13
2018-10-19T18:31:20.936Z,31.87
2018-10-19T18:33:24.496Z,29.33
2018-10-19T18:35:28.120Z,31.57
2018-10-19T18:37:31.749Z,33.53
2018-10-19T18:39:35.261Z,45.73
2018-10-19T18:41:38.817Z,46.50
2018-10-19T18:43:42.540Z,45.60
2018-10-19T18:45:46.050Z,45.23
2018-10-19T18:47:49.659Z,47.87
2018-10-19T18:49:53.155Z,40.17
2018-10-19T18:51:56.700Z,38.03
2018-10-19T18:54:00.215Z,35.10
2018-10-19T18:56:04.135Z,34.50
2018-10-19T18:58:07.797Z,35.80
2018-10-19T19:00:12.249Z,33.50
2018-10-19T19:02:15.749Z,34.97
2018-10-19T19:04:19.444Z,31.23
2018-10-19T19:06:23.335Z,29.37
2018-10-19T19:08:26.856Z,28.43
2018-10-19T19:10:30.367Z,29.87
2018-10-19T19:12:33.900Z,27.73
2018-10-19T19:14:37.505Z,27.80
2018-10-19T19:16:41.144Z,28.37
2018-10-19T19:18:44.701Z,27.97
2018-10-19T19:20:48.232Z,31.97
2018-10-19T19:22:51.735Z,33.40
2018-10-19T19:25:00.609Z,31.63
2018-10-19T19:27:04.191Z,31.50
2018-10-19T19:29:07.805Z,31.10
2018-10-19T19:31:11.771Z,31.27
2018-10-19T19:33:20.524Z,32.33
2018-10-19T19:35:24.063Z,32.40
2018-10-19T19:37:27.567Z,30.10
2018-10-19T19:39:31.197Z,30.57
2018-10-19T19:41:40.003Z,29.20
2018-10-19T19:43:43.900Z,31.73
2018-10-19T19:45:47.438Z,32.23
2018-10-19T19:47:56.154Z,33.93
2018-10-19T19:50:01.299Z,32.07
2018-10-19T19:52:05.559Z,29.30
2018-10-19T19:54:09.052Z,32.37
2018-10-19T19:56:13.020Z,33.00
2018-10-19T19:58:16.734Z,32.13
2018-10-19T20:00:20.338Z,34.77
2018-10-19T20:02:23.860Z,36.63
2018-10-19T20:04:27.662Z,35.17
2018-10-19T20:06:31.200Z,34.17
2018-10-19T20:08:35.006Z,34.43
2018-10-19T20:10:38.855Z,33.45
2018-10-19T20:12:42.648Z,32.73
2018-10-19T20:14:46.464Z,35.55
2018-10-19T20:16:50.295Z,34.63
2018-10-19T20:18:53.785Z,34.83
2018-10-19T20:20:57.607Z,37.15
2018-10-19T20:23:01.497Z,38.05
2018-10-19T20:25:06.739Z,36.60
2018-10-19T20:27:10.519Z,35.50
2018-10-19T20:29:14.451Z,34.27
2018-10-19T20:31:18.332Z,31.12
2018-10-19T20:33:21.852Z,31.93
2018-10-19T20:35:25.879Z,29.92
2018-10-19T20:37:29.364Z,33.20
2018-10-19T20:39:33.207Z,33.83
2018-10-19T20:41:36.976Z,30.77
2018-10-19T20:43:40.780Z,30.25
2018-10-19T20:45:44.616Z,31.75
2018-10-19T20:47:48.466Z,35.05
2018-10-19T20:49:52.274Z,43.13
2018-10-19T20:51:56.067Z,38.73
2018-10-19T20:53:59.877Z,37.60
2018-10-19T20:56:03.793Z,34.88
2018-10-19T20:58:07.746Z,35.50
2018-10-19T21:00:11.548Z,35.88
2018-10-19T21:02:15.374Z,33.75
2018-10-19T21:04:19.321Z,32.70
2018-10-19T21:06:23.132Z,30.90
2018-10-19T21:08:26.956Z,30.77
2018-10-19T21:10:30.774Z,33.18
2018-10-19T21:12:34.550Z,37.35
2018-10-19T21:14:38.364Z,34.05
2018-10-19T21:16:42.130Z,34.65
2018-10-19T21:18:45.941Z,33.90
2018-10-19T21:20:49.743Z,31.50
2018-10-19T21:22:53.548Z,32.13
2018-10-19T21:24:57.357Z,31.80
2018-10-19T21:27:01.137Z,35.83
2018-10-19T21:29:04.949Z,34.95
2018-10-19T21:31:09.004Z,38.42
2018-10-19T21:33:12.803Z,38.05
2018-10-19T21:35:16.718Z,36.68
2018-10-19T21:37:20.547Z,32.65
2018-10-19T21:39:24.369Z,33.63
2018-10-19T21:41:28.163Z,31.90
2018-10-19T21:43:31.959Z,33.08
2018-10-19T21:45:35.747Z,37.63
2018-10-19T21:47:39.492Z,42.13
2018-10-19T21:49:43.279Z,38.60
2018-10-19T21:51:47.117Z,42.15
2018-10-19T21:53:51.037Z,40.10
2018-10-19T21:55:54.871Z,38.23
2018-10-19T21:57:58.659Z,36.10
2018-10-19T22:00:02.469Z,34.90
2018-10-19T22:02:06.395Z,33.28
2018-10-19T22:04:10.376Z,33.92
2018-10-19T22:06:14.184Z,33.65
2018-10-19T22:08:18.370Z,34.48
2018-10-19T22:10:22.350Z,36.40
2018-10-19T22:12:26.168Z,34.67
2018-10-19T22:14:29.959Z,36.03
2018-10-19T22:16:34.037Z,36.98
2018-10-19T22:18:37.861Z,38.13
2018-10-19T22:20:41.718Z,37.70
2018-10-19T22:22:45.591Z,37.13
2018-10-19T22:24:49.468Z,33.60
2018-10-19T22:26:53.550Z,36.63
2018-10-19T22:28:57.427Z,33.13
2018-10-19T22:31:01.594Z,31.90
2018-10-19T22:33:05.945Z,31.33
2018-10-19T22:35:09.806Z,31.65
2018-10-19T22:37:13.833Z,33.23
2018-10-19T22:39:17.862Z,34.27
2018-10-19T22:41:22.037Z,40.33
2018-10-19T22:43:25.872Z,36.45
2018-10-19T22:45:29.715Z,35.55
2018-10-19T22:47:33.957Z,33.55
2018-10-19T22:49:37.831Z,31.97
2018-10-19T22:51:41.680Z,38.17
2018-10-19T22:53:45.580Z,39.10
2018-10-19T22:55:49.507Z,35.30
2018-10-19T22:57:53.389Z,34.95
2018-10-19T22:59:57.318Z,38.88
2018-10-19T23:02:01.169Z,41.60
2018-10-19T23:04:05.931Z,39.27
2018-10-19T23:06:09.780Z,38.25
2018-10-19T23:08:13.585Z,36.65
2018-10-19T23:10:17.454Z,33.58
2018-10-19T23:12:21.292Z,33.05
2018-10-19T23:14:25.143Z,33.15
2018-10-19T23:16:28.989Z,33.70
2018-10-19T23:18:32.837Z,34.43
2018-10-19T23:20:36.654Z,32.80
2018-10-19T23:22:40.510Z,34.15
2018-10-19T23:24:44.348Z,31.33
2018-10-19T23:26:48.206Z,30.35
2018-10-19T23:28:52.047Z,32.00
2018-10-19T23:30:55.927Z,33.63
2018-10-19T23:32:59.970Z,35.95
2018-10-19T23:35:04.257Z,35.55
2018-10-19T23:37:08.226Z,33.85
2018-10-19T23:39:13.073Z,33.60
2018-10-19T23:41:16.971Z,36.10
2018-10-19T23:43:20.975Z,39.35
2018-10-19T23:45:24.860Z,34.88
2018-10-19T23:47:28.700Z,36.28
2018-10-19T23:49:32.695Z,32.67
2018-10-19T23:51:36.579Z,32.00
2018-10-19T23:53:40.440Z,33.75
2018-10-19T23:55:44.271Z,33.48
2018-10-19T23:57:48.156Z,34.45
2018-10-19T23:59:52.006Z,33.70
